createdAt,value
2019-05-11T00:00:18.565Z,9.4
2019-05-11T00:01:20.358Z,9.4
2019-05-11T00:13:32.517Z,9.2
2019-05-11T00:14:32.519Z,9.2
2019-05-11T00:15:32.687Z,9.2
2019-05-11T00:16:32.658Z,9.2
2019-05-11T00:17:32.720Z,9.3
2019-05-11T00:18:32.852Z,9.4
2019-05-11T00:19:32.871Z,9.5
2019-05-11T00:20:32.948Z,9.3
2019-05-11T00:21:32.965Z,9.3
2019-05-11T00:22:33.004Z,9.3
2019-05-11T00:23:33.140Z,9.5
2019-05-11T00:24:33.128Z,9.5
2019-05-11T00:25:35.645Z,9.4
2019-05-11T00:26:33.208Z,9.3
2019-05-11T00:27:33.273Z,9.3
2019-05-11T00:28:33.347Z,9.1
2019-05-11T00:29:33.380Z,9.2
2019-05-11T00:30:33.494Z,9.1
2019-05-11T00:31:33.504Z,9.1
2019-05-11T00:32:33.591Z,9.2
2019-05-11T00:33:33.778Z,9.4
2019-05-11T00:34:33.768Z,9.5
2019-05-11T00:35:35.519Z,9.5
2019-05-11T00:36:33.853Z,9.4
2019-05-11T00:37:34.222Z,9.2
2019-05-11T00:38:34.009Z,9.2
2019-05-11T00:39:34.415Z,9.1
2019-05-11T00:40:34.120Z,9
2019-05-11T00:41:34.396Z,9
2019-05-11T00:42:34.256Z,9.2
2019-05-11T00:43:34.647Z,9.4
2019-05-11T00:44:34.433Z,9.5
2019-05-11T00:45:37.893Z,9.5
2019-05-11T00:46:34.762Z,9.3
2019-05-11T00:47:34.707Z,9.3
2019-05-11T00:48:35.069Z,9.3
2019-05-11T00:49:34.810Z,9.3
2019-05-11T00:50:39.052Z,9.2
2019-05-11T00:51:34.960Z,9.1
2019-05-11T00:52:35.013Z,9
2019-05-11T00:53:35.122Z,9
2019-05-11T00:54:35.203Z,9
2019-05-11T00:55:36.011Z,8.9
2019-05-11T00:56:35.325Z,9.1
2019-05-11T00:57:38.921Z,9
2019-05-11T00:59:35.679Z,9.2
2019-05-11T01:00:36.568Z,9.2
2019-05-11T01:01:35.768Z,9.1
2019-05-11T01:02:36.117Z,9
2019-05-11T01:03:36.485Z,9
2019-05-11T01:04:36.269Z,9
2019-05-11T01:05:45.399Z,9
2019-05-11T01:06:36.073Z,9
2019-05-11T01:07:36.476Z,8.9
2019-05-11T01:08:36.177Z,8.8
2019-05-11T01:09:36.236Z,8.8
2019-05-11T01:10:42.344Z,8.8
2019-05-11T01:11:36.568Z,8.9
2019-05-11T01:22:50.038Z,9.2
2019-05-11T01:23:50.384Z,9.2
2019-05-11T01:25:16.653Z,9.2
2019-05-11T01:25:52.922Z,9.2
2019-05-11T01:31:51.291Z,8.9
2019-05-11T01:32:50.323Z,8.9
2019-05-11T01:33:51.347Z,9
2019-05-11T01:34:50.410Z,9.2
2019-05-11T01:35:52.311Z,9.2
2019-05-11T01:36:50.516Z,9.2
2019-05-11T01:37:56.335Z,9
2019-05-11T01:40:58.417Z,9.2
2019-05-11T01:41:57.272Z,9
2019-05-11T01:47:53.378Z,8.8
2019-05-11T01:48:52.138Z,9
2019-05-11T01:50:09.717Z,8.8
2019-05-11T01:50:51.716Z,8.8
2019-05-11T02:37:40.203Z,8.6
2019-05-11T02:38:40.070Z,8.6
2019-05-11T02:39:40.173Z,8.6
2019-05-11T02:40:40.199Z,8.6
2019-05-11T02:41:40.278Z,8.7
2019-05-11T02:42:40.410Z,8.5
2019-05-11T02:43:40.446Z,8.5
2019-05-11T02:44:40.501Z,8.5
2019-05-11T02:45:41.044Z,8.5
2019-05-11T02:46:40.730Z,8.5
2019-05-11T02:47:40.801Z,8.7
2019-05-11T02:48:40.800Z,8.8
2019-05-11T02:49:46.215Z,8.8
2019-05-11T02:50:48.239Z,8.7
2019-05-11T02:51:41.037Z,8.7
2019-05-11T03:03:58.029Z,8.8
2019-05-11T03:04:58.012Z,8.8
2019-05-11T03:05:58.061Z,8.8
2019-05-11T03:06:58.105Z,8.8
2019-05-11T03:07:58.176Z,8.8
2019-05-11T03:08:58.257Z,8.8
2019-05-11T03:09:58.297Z,8.8
2019-05-11T03:22:41.336Z,8.8
2019-05-11T03:23:41.439Z,8.8
2019-05-11T03:24:41.428Z,8.8
2019-05-11T03:25:41.481Z,8.8
2019-05-11T03:26:41.489Z,8.7
2019-05-11T03:27:41.790Z,8.7
2019-05-11T03:28:41.570Z,8.7
2019-05-11T03:32:45.791Z,8.8
2019-05-11T03:33:45.634Z,8.8
2019-05-11T03:34:45.657Z,8.7
2019-05-11T03:35:45.837Z,8.6
2019-05-11T03:36:47.242Z,8.6
2019-05-11T03:37:46.051Z,8.8
2019-05-11T03:38:47.531Z,8.9
2019-05-11T03:39:46.542Z,8.9
2019-05-11T03:40:47.036Z,8.8
2019-05-11T03:41:45.948Z,8.8
2019-05-11T03:42:45.347Z,8.8
2019-05-11T03:43:47.315Z,8.8
2019-05-11T03:44:47.680Z,8.8
2019-05-11T03:45:47.183Z,8.9
2019-05-11T03:46:45.945Z,8.8
2019-05-11T03:47:45.531Z,8.9
2019-05-11T03:48:45.524Z,8.8
2019-05-11T03:49:45.671Z,8.7
2019-05-11T03:50:45.652Z,8.6
2019-05-11T03:51:46.518Z,8.6
2019-05-11T03:52:49.404Z,8.7
2019-05-11T03:53:45.752Z,8.7
2019-05-11T03:54:45.761Z,8.6
2019-05-11T03:55:45.800Z,8.6
2019-05-11T03:56:45.842Z,8.6
2019-05-11T03:57:45.873Z,8.6
2019-05-11T03:58:45.942Z,8.8
2019-05-11T03:59:45.963Z,8.8
2019-05-11T04:00:46.014Z,8.8
2019-05-11T04:01:46.029Z,8.8
2019-05-11T04:02:46.095Z,8.8
2019-05-11T04:03:46.143Z,8.8
2019-05-11T04:04:46.149Z,8.8
2019-05-11T04:05:46.276Z,8.7
2019-05-11T04:06:46.254Z,8.8
2019-05-11T04:07:46.334Z,8.7
2019-05-11T04:08:46.510Z,8.6
2019-05-11T04:09:46.492Z,8.7
2019-05-11T04:10:46.584Z,8.6
2019-05-11T04:11:46.593Z,8.6
2019-05-11T04:12:46.679Z,8.6
2019-05-11T04:26:32.961Z,8.7
2019-05-11T04:27:32.900Z,8.6
2019-05-11T04:28:32.977Z,8.5
2019-05-11T04:29:32.994Z,8.5
2019-05-11T04:30:33.006Z,8.5
2019-05-11T04:31:33.066Z,8.7
2019-05-11T04:32:33.076Z,8.7
2019-05-11T04:33:33.559Z,8.6
2019-05-11T04:34:33.182Z,8.6
2019-05-11T04:35:33.177Z,8.5
2019-05-11T05:35:20.562Z,8.9
2019-05-11T05:36:20.663Z,8.9
2019-05-11T05:37:20.677Z,8.8
2019-05-11T05:38:20.722Z,8.8
2019-05-11T05:39:20.760Z,8.9
2019-05-11T05:40:20.882Z,9
2019-05-11T05:41:20.969Z,8.9
2019-05-11T05:42:20.950Z,8.9
2019-05-11T05:43:26.628Z,8.8
2019-05-11T05:44:21.392Z,8.9
2019-05-11T05:45:21.171Z,8.9
2019-05-11T05:46:21.211Z,8.9
2019-05-11T05:47:21.596Z,8.9
2019-05-11T05:48:21.371Z,8.8
2019-05-11T05:49:24.570Z,9
2019-05-11T05:50:25.766Z,9.1
2019-05-11T05:51:32.270Z,9.1
2019-05-11T05:52:21.698Z,9.2
2019-05-11T05:53:21.739Z,9
2019-05-11T05:54:21.938Z,8.9
2019-05-11T05:55:21.956Z,8.8
2019-05-11T05:56:22.016Z,8.7
2019-05-11T05:57:22.037Z,8.9
2019-05-11T05:58:22.125Z,8.9
2019-05-11T05:59:24.842Z,8.8
2019-05-11T06:00:22.387Z,8.8
2019-05-11T06:01:22.655Z,8.8
2019-05-11T06:02:22.420Z,8.7
2019-05-11T06:03:22.517Z,8.7
2019-05-11T06:04:22.554Z,8.8
2019-05-11T06:05:22.621Z,8.8
2019-05-11T06:06:22.800Z,8.9
2019-05-11T06:07:23.229Z,8.9
2019-05-11T06:08:22.823Z,8.9
2019-05-11T06:09:23.956Z,9
2019-05-11T06:10:32.987Z,9
2019-05-11T06:11:23.083Z,8.9
2019-05-11T06:12:25.267Z,8.9
2019-05-11T06:13:23.291Z,8.9
2019-05-11T06:14:26.190Z,8.9
2019-05-11T06:15:23.487Z,8.8
2019-05-11T06:16:32.278Z,8.9
2019-05-11T06:17:27.664Z,9
2019-05-11T06:18:26.490Z,9
2019-05-11T06:19:23.674Z,9
2019-05-11T06:20:23.894Z,9
2019-05-11T06:21:24.895Z,9
2019-05-11T06:22:55.195Z,9
2019-05-11T06:23:45.941Z,9
2019-05-11T06:24:51.959Z,9
2019-05-11T06:25:29.766Z,9.1
2019-05-11T06:26:26.552Z,9.1
2019-05-11T06:27:39.776Z,9
2019-05-11T06:28:37.426Z,9
2019-05-11T06:30:43.146Z,8.9
2019-05-11T06:31:42.795Z,8.9
2019-05-11T06:32:43.573Z,9
2019-05-11T06:33:24.853Z,9
2019-05-11T06:34:37.964Z,8.9
2019-05-11T06:35:28.264Z,8.9
2019-05-11T06:36:25.871Z,8.9
2019-05-11T06:37:25.022Z,8.9
2019-05-11T06:38:31.456Z,8.9
2019-05-11T06:39:25.462Z,9
2019-05-11T06:40:38.858Z,9
2019-05-11T06:41:25.306Z,8.9
2019-05-11T06:42:25.349Z,8.9
2019-05-11T06:43:25.500Z,8.9
2019-05-11T06:44:28.211Z,8.8
2019-05-11T06:45:37.149Z,8.9
2019-05-11T06:46:25.628Z,9
2019-05-11T06:47:25.730Z,8.9
2019-05-11T06:48:26.810Z,8.8
2019-05-11T06:49:25.860Z,8.9
2019-05-11T06:50:26.070Z,8.9
2019-05-11T06:51:26.039Z,8.9
2019-05-11T06:52:26.168Z,9
2019-05-11T06:53:26.349Z,8.9
2019-05-11T06:54:26.324Z,8.8
2019-05-11T06:55:26.403Z,8.8
2019-05-11T06:56:26.389Z,8.9
2019-05-11T06:57:26.480Z,8.9
2019-05-11T06:58:26.547Z,8.8
2019-05-11T06:59:26.648Z,8.8
2019-05-11T07:00:26.720Z,8.9
2019-05-11T07:01:27.042Z,8.9
2019-05-11T07:02:43.341Z,8.9
2019-05-11T07:03:26.932Z,9
2019-05-11T07:04:27.066Z,9.1
2019-05-11T07:05:27.092Z,9.1
2019-05-11T07:06:30.420Z,9.1
2019-05-11T07:07:27.209Z,9
2019-05-11T07:08:27.315Z,9
2019-05-11T07:09:27.400Z,9
2019-05-11T07:10:27.501Z,8.8
2019-05-11T07:11:27.641Z,8.9
2019-05-11T07:12:29.105Z,8.9
2019-05-11T07:13:27.791Z,9
2019-05-11T07:14:27.873Z,9
2019-05-11T07:15:27.921Z,8.9
2019-05-11T07:16:27.971Z,8.9
2019-05-11T07:17:28.049Z,8.9
2019-05-11T07:18:28.112Z,8.8
2019-05-11T07:19:28.195Z,8.7
2019-05-11T07:20:28.370Z,8.8
2019-05-11T07:21:28.397Z,8.9
2019-05-11T07:22:28.749Z,8.9
2019-05-11T07:23:28.652Z,9
2019-05-11T07:24:28.616Z,9
2019-05-11T07:25:28.716Z,9
2019-05-11T07:26:28.953Z,9.1
2019-05-11T07:27:28.837Z,9.1
2019-05-11T07:28:28.932Z,9.2
2019-05-11T07:29:29.042Z,9.3
2019-05-11T07:30:30.098Z,9.3
2019-05-11T07:31:29.173Z,9.1
2019-05-11T07:32:29.395Z,9
2019-05-11T07:33:29.290Z,8.9
2019-05-11T07:34:29.410Z,9
2019-05-11T07:35:29.468Z,9.1
2019-05-11T07:36:30.775Z,9.1
2019-05-11T07:37:29.632Z,9.2
2019-05-11T07:38:29.703Z,9
2019-05-11T07:39:29.760Z,9.1
2019-05-11T07:40:29.843Z,9.1
2019-05-11T07:41:29.947Z,9
2019-05-11T07:42:30.028Z,9
2019-05-11T07:43:30.023Z,9.1
2019-05-11T07:44:37.806Z,9.2
2019-05-11T07:45:30.436Z,9.3
2019-05-11T07:46:30.198Z,9.2
2019-05-11T07:47:30.318Z,9.2
2019-05-11T07:48:30.508Z,9.2
2019-05-11T07:49:30.406Z,9.2
2019-05-11T07:50:30.462Z,9.2
2019-05-11T07:51:30.553Z,9.1
2019-05-11T07:52:30.642Z,9.1
2019-05-11T07:53:31.782Z,9.1
2019-05-11T07:54:30.745Z,9.1
2019-05-11T07:55:30.832Z,9
2019-05-11T07:56:30.902Z,9
2019-05-11T07:57:31.020Z,9
2019-05-11T07:58:32.323Z,9.1
2019-05-11T07:59:31.432Z,9.3
2019-05-11T08:00:31.166Z,9.3
2019-05-11T08:01:31.255Z,9.3
2019-05-11T08:02:32.375Z,9.3
2019-05-11T08:03:31.447Z,9.1
2019-05-11T08:04:31.563Z,9.2
2019-05-11T08:05:33.552Z,9.3
2019-05-11T08:06:31.738Z,9.3
2019-05-11T08:07:31.738Z,9.3
2019-05-11T08:08:31.780Z,9.4
2019-05-11T08:09:31.874Z,9.4
2019-05-11T08:10:32.087Z,9.4
2019-05-11T08:11:32.266Z,9.5
2019-05-11T08:12:32.125Z,9.4
2019-05-11T08:13:32.190Z,9.5
2019-05-11T08:14:32.280Z,9.5
2019-05-11T08:15:32.349Z,9.6
2019-05-11T08:16:32.413Z,9.5
2019-05-11T08:17:32.542Z,9.4
2019-05-11T08:18:32.600Z,9.5
2019-05-11T08:19:32.653Z,9.5
2019-05-11T08:20:32.739Z,9.6
2019-05-11T08:21:32.798Z,9.6
2019-05-11T08:22:32.875Z,9.6
2019-05-11T08:23:32.941Z,9.6
2019-05-11T08:24:32.999Z,9.7
2019-05-11T08:25:33.068Z,9.6
2019-05-11T08:26:33.161Z,9.6
2019-05-11T08:27:33.322Z,9.6
2019-05-11T08:28:33.309Z,9.5
2019-05-11T08:29:33.395Z,9.5
2019-05-11T08:30:33.478Z,9.5
2019-05-11T08:31:33.535Z,9.4
2019-05-11T08:32:33.694Z,9.4
2019-05-11T08:33:33.700Z,9.4
2019-05-11T08:34:33.792Z,9.5
2019-05-11T08:35:33.851Z,9.5
2019-05-11T08:36:33.977Z,9.5
2019-05-11T08:37:34.034Z,9.5
2019-05-11T08:38:34.114Z,9.5
2019-05-11T08:39:34.154Z,9.5
2019-05-11T08:40:34.249Z,9.6
2019-05-11T08:41:34.308Z,9.6
2019-05-11T08:42:34.483Z,9.6
2019-05-11T08:43:34.464Z,9.6
2019-05-11T08:44:34.575Z,9.8
2019-05-11T08:45:34.647Z,9.8
2019-05-11T08:46:34.740Z,9.8
2019-05-11T08:47:34.818Z,9.8
2019-05-11T08:48:34.978Z,9.8
2019-05-11T08:49:34.995Z,9.7
2019-05-11T08:50:35.194Z,9.6
2019-05-11T08:51:35.351Z,9.6
2019-05-11T08:52:35.554Z,9.5
2019-05-11T08:53:35.482Z,9.6
2019-05-11T08:54:37.939Z,9.6
2019-05-11T08:55:35.357Z,9.5
2019-05-11T08:56:37.992Z,9.6
2019-05-11T08:57:35.605Z,9.6
2019-05-11T08:58:37.712Z,9.6
2019-05-11T08:59:37.824Z,9.6
2019-05-11T09:00:35.644Z,9.6
2019-05-11T09:01:35.754Z,9.6
2019-05-11T09:02:38.077Z,9.6
2019-05-11T09:03:35.837Z,9.7
2019-05-11T09:04:39.354Z,9.7
2019-05-11T09:05:38.165Z,9.8
2019-05-11T09:06:37.618Z,9.8
2019-05-11T09:07:38.363Z,9.8
2019-05-11T09:08:38.538Z,9.8
2019-05-11T09:09:37.970Z,9.8
2019-05-11T09:10:37.531Z,9.8
2019-05-11T09:11:38.815Z,9.8
2019-05-11T09:12:38.175Z,9.8
2019-05-11T09:13:39.121Z,9.8
2019-05-11T09:14:38.680Z,9.7
2019-05-11T09:15:39.864Z,9.7
2019-05-11T09:16:38.262Z,9.7
2019-05-11T09:17:38.213Z,9.7
2019-05-11T09:18:38.525Z,9.7
2019-05-11T09:19:38.875Z,9.7
2019-05-11T09:20:37.943Z,9.7
2019-05-11T09:21:38.951Z,9.7
2019-05-11T09:22:38.472Z,9.7
2019-05-11T09:23:40.657Z,9.7
2019-05-11T09:24:38.877Z,9.7
2019-05-11T09:25:38.979Z,9.7
2019-05-11T09:26:38.959Z,9.8
2019-05-11T09:27:38.444Z,9.7
2019-05-11T09:28:38.599Z,9.8
2019-05-11T09:29:39.789Z,9.8
2019-05-11T09:30:38.452Z,9.8
2019-05-11T09:31:39.096Z,9.8
2019-05-11T09:32:38.547Z,9.8
2019-05-11T09:33:38.983Z,9.9
2019-05-11T09:34:40.581Z,10
2019-05-11T09:35:49.706Z,10
2019-05-11T09:36:39.242Z,9.9
2019-05-11T09:37:38.358Z,9.9
2019-05-11T09:38:40.422Z,9.8
2019-05-11T09:39:41.170Z,9.8
2019-05-11T09:40:38.747Z,9.8
2019-05-11T09:41:40.803Z,9.8
2019-05-11T09:42:41.727Z,9.8
2019-05-11T09:43:40.833Z,9.9
2019-05-11T09:44:39.819Z,10
2019-05-11T09:45:48.012Z,10
2019-05-11T09:46:39.013Z,10.1
2019-05-11T09:47:39.063Z,10.2
2019-05-11T09:48:39.140Z,10.1
2019-05-11T09:49:47.272Z,10
2019-05-11T09:50:39.284Z,10
2019-05-11T09:51:39.318Z,10
2019-05-11T09:52:39.449Z,10.1
2019-05-11T09:53:39.680Z,10
2019-05-11T09:54:39.723Z,10.1
2019-05-11T09:55:39.768Z,10.1
2019-05-11T09:56:39.815Z,10.1
2019-05-11T09:57:40.037Z,10.1
2019-05-11T09:58:40.005Z,10.2
2019-05-11T09:59:39.976Z,10
2019-05-11T10:00:40.045Z,10
2019-05-11T10:01:40.103Z,10.1
2019-05-11T10:02:41.201Z,10.1
2019-05-11T10:03:40.269Z,10.1
2019-05-11T10:04:40.391Z,10.1
2019-05-11T10:05:40.434Z,10.1
2019-05-11T10:06:40.544Z,10.2
2019-05-11T10:07:40.552Z,10.1
2019-05-11T10:08:40.598Z,10
2019-05-11T10:09:47.828Z,10.1
2019-05-11T10:10:40.798Z,10.1
2019-05-11T10:11:40.833Z,10.1
2019-05-11T10:12:40.882Z,10
2019-05-11T10:13:41.032Z,10
2019-05-11T10:14:41.018Z,10.1
2019-05-11T10:15:41.105Z,10
2019-05-11T10:16:41.165Z,9.9
2019-05-11T10:17:43.341Z,9.9
2019-05-11T10:18:41.306Z,9.9
2019-05-11T10:19:41.390Z,10
2019-05-11T10:20:41.494Z,10
2019-05-11T10:21:41.557Z,10.1
2019-05-11T10:22:41.607Z,9.9
2019-05-11T10:23:42.534Z,10
2019-05-11T10:24:41.752Z,10
2019-05-11T10:25:41.878Z,10.1
2019-05-11T10:26:41.927Z,10.2
2019-05-11T10:27:42.028Z,10.2
2019-05-11T10:28:42.092Z,10.1
2019-05-11T10:29:42.203Z,10.1
2019-05-11T10:30:42.384Z,10
2019-05-11T10:31:42.418Z,9.9
2019-05-11T10:32:42.453Z,9.9
2019-05-11T10:33:42.544Z,10.1
2019-05-11T10:34:42.767Z,10.3
2019-05-11T10:35:42.877Z,10.3
2019-05-11T10:36:42.826Z,10.3
2019-05-11T10:37:42.901Z,10.3
2019-05-11T10:38:42.960Z,10.3
2019-05-11T10:39:43.103Z,10.3
2019-05-11T10:40:43.160Z,10.4
2019-05-11T10:41:43.247Z,10.4
2019-05-11T10:42:43.321Z,10.4
2019-05-11T10:43:43.400Z,10.4
2019-05-11T10:44:43.521Z,10.4
2019-05-11T10:45:43.602Z,10.5
2019-05-11T10:46:43.683Z,10.4
2019-05-11T10:47:48.900Z,10.5
2019-05-11T10:48:43.866Z,10.5
2019-05-11T10:49:43.957Z,10.4
2019-05-11T10:50:44.076Z,10.4
2019-05-11T10:51:44.160Z,10.4
2019-05-11T10:52:44.258Z,10.4
2019-05-11T10:53:44.273Z,10.5
2019-05-11T10:54:44.381Z,10.4
2019-05-11T10:55:44.467Z,10.4
2019-05-11T10:56:44.550Z,10.4
2019-05-11T10:57:44.609Z,10.4
2019-05-11T10:58:44.744Z,10.5
2019-05-11T10:59:44.749Z,10.5
2019-05-11T11:00:44.860Z,10.5
2019-05-11T11:01:44.914Z,10.5
2019-05-11T11:02:45.010Z,10.6
2019-05-11T11:03:45.076Z,10.6
2019-05-11T11:04:45.182Z,10.5
2019-05-11T11:05:45.222Z,10.5
2019-05-11T11:06:45.321Z,10.5
2019-05-11T11:07:45.355Z,10.5
2019-05-11T11:08:45.426Z,10.6
2019-05-11T11:09:45.486Z,10.7
2019-05-11T11:10:45.611Z,10.6
2019-05-11T11:11:45.657Z,10.5
2019-05-11T11:12:45.706Z,10.5
2019-05-11T11:13:47.705Z,10.6
2019-05-11T11:14:47.652Z,10.6
2019-05-11T11:15:48.233Z,10.6
2019-05-11T11:16:47.788Z,10.5
2019-05-11T11:17:48.259Z,10.5
2019-05-11T11:18:48.268Z,10.5
2019-05-11T11:19:48.365Z,10.4
2019-05-11T11:20:48.811Z,10.5
2019-05-11T11:21:48.483Z,10.5
2019-05-11T11:22:47.947Z,10.6
2019-05-11T11:23:47.987Z,10.7
2019-05-11T11:24:48.129Z,10.6
2019-05-11T11:25:48.099Z,10.5
2019-05-11T11:26:48.554Z,10.5
2019-05-11T11:27:48.587Z,10.5
2019-05-11T11:28:47.696Z,10.6
2019-05-11T11:29:47.527Z,10.8
2019-05-11T11:30:48.013Z,10.9
2019-05-11T11:31:48.104Z,10.9
2019-05-11T11:32:48.210Z,11
2019-05-11T11:33:48.861Z,11
2019-05-11T11:34:48.449Z,10.9
2019-05-11T11:35:47.744Z,10.9
2019-05-11T11:36:48.108Z,10.9
2019-05-11T11:37:47.932Z,10.8
2019-05-11T11:38:48.036Z,10.7
2019-05-11T11:39:47.718Z,10.6
2019-05-11T11:40:48.321Z,10.6
2019-05-11T11:41:48.789Z,10.7
2019-05-11T11:42:48.135Z,10.6
2019-05-11T11:43:48.266Z,10.4
2019-05-11T11:44:48.333Z,10.3
2019-05-11T11:45:48.399Z,10.4
2019-05-11T11:46:54.802Z,10.4
2019-05-11T11:47:49.249Z,10.4
2019-05-11T11:48:48.774Z,10.3
2019-05-11T11:49:50.887Z,10.3
2019-05-11T11:50:49.593Z,10.3
2019-05-11T11:51:49.203Z,10.4
2019-05-11T11:52:50.830Z,10.5
2019-05-11T11:53:48.542Z,10.6
2019-05-11T11:54:48.611Z,10.5
2019-05-11T11:55:48.727Z,10.4
2019-05-11T11:56:48.797Z,10.3
2019-05-11T11:57:50.296Z,10.3
2019-05-11T11:58:49.090Z,10.2
2019-05-11T11:59:49.332Z,10.3
2019-05-11T12:00:51.449Z,10.2
2019-05-11T12:01:50.678Z,10.2
2019-05-11T12:02:50.963Z,10.1
2019-05-11T12:03:49.354Z,10.1
2019-05-11T12:04:49.609Z,10.2
2019-05-11T12:05:49.534Z,10.2
2019-05-11T12:06:49.795Z,10.2
2019-05-11T12:07:49.927Z,10.1
2019-05-11T12:08:49.951Z,10.2
2019-05-11T12:09:49.820Z,10.3
2019-05-11T12:10:51.350Z,10.4
2019-05-11T12:11:51.022Z,10.5
2019-05-11T12:12:50.514Z,10.5
2019-05-11T12:13:51.033Z,10.4
2019-05-11T12:14:50.359Z,10.5
2019-05-11T12:15:50.423Z,10.5
2019-05-11T12:17:03.856Z,10.4
2019-05-11T12:17:50.527Z,10.5
2019-05-11T12:18:50.717Z,10.7
2019-05-11T12:19:50.706Z,10.7
2019-05-11T12:20:51.644Z,10.7
2019-05-11T12:21:50.696Z,10.6
2019-05-11T12:22:50.863Z,10.7
2019-05-11T12:23:50.929Z,10.6
2019-05-11T12:24:52.795Z,10.7
2019-05-11T12:25:51.081Z,10.8
2019-05-11T12:26:51.419Z,10.7
2019-05-11T12:27:51.365Z,10.8
2019-05-11T12:28:51.332Z,10.7
2019-05-11T12:29:51.327Z,10.8
2019-05-11T12:30:58.304Z,10.8
2019-05-11T12:31:51.757Z,10.8
2019-05-11T12:32:52.172Z,10.7
2019-05-11T12:33:51.994Z,10.8
2019-05-11T12:34:52.014Z,10.8
2019-05-11T12:35:51.672Z,10.8
2019-05-11T12:36:52.073Z,10.8
2019-05-11T12:37:51.787Z,10.8
2019-05-11T12:38:51.896Z,10.8
2019-05-11T12:39:52.034Z,10.8
2019-05-11T12:40:51.996Z,10.8
2019-05-11T12:41:52.035Z,10.8
2019-05-11T12:42:54.025Z,10.8
2019-05-11T12:43:53.427Z,10.7
2019-05-11T12:45:07.512Z,10.7
2019-05-11T12:45:58.692Z,10.8
2019-05-11T12:46:31.527Z,10.8
2019-05-11T12:46:52.322Z,10.9
2019-05-11T12:47:52.385Z,10.9
2019-05-11T12:48:52.448Z,10.9
2019-05-11T12:49:52.471Z,10.9
2019-05-11T12:50:52.615Z,10.9
2019-05-11T12:51:52.664Z,10.9
2019-05-11T12:52:52.727Z,11
2019-05-11T12:53:52.796Z,11.1
2019-05-11T12:54:52.834Z,11.1
2019-05-11T12:55:52.969Z,11.2
2019-05-11T12:56:52.996Z,11.2
2019-05-11T12:57:53.069Z,11.2
2019-05-11T12:58:53.177Z,11.1
2019-05-11T12:59:53.220Z,11.1
2019-05-11T13:00:53.310Z,11.1
2019-05-11T13:01:53.357Z,11.2
2019-05-11T13:02:53.424Z,11.3
2019-05-11T13:03:53.472Z,11.3
2019-05-11T13:04:53.548Z,11.4
2019-05-11T13:05:53.645Z,11.5
2019-05-11T13:06:53.688Z,11.5
2019-05-11T13:07:53.779Z,11.4
2019-05-11T13:08:53.860Z,11.3
2019-05-11T13:09:53.914Z,11.3
2019-05-11T13:10:54.021Z,11.4
2019-05-11T13:11:54.157Z,11.3
2019-05-11T13:12:54.251Z,11.3
2019-05-11T13:13:54.274Z,11.5
2019-05-11T13:14:54.305Z,11.4
2019-05-11T13:15:54.537Z,11.3
2019-05-11T13:16:54.474Z,11.3
2019-05-11T13:17:54.533Z,11.3
2019-05-11T13:18:54.614Z,11.2
2019-05-11T13:19:54.698Z,11.3
2019-05-11T13:20:54.829Z,11.3
2019-05-11T13:21:54.816Z,11.3
2019-05-11T13:22:54.919Z,11.3
2019-05-11T13:23:55.006Z,11.3
2019-05-11T13:24:55.063Z,11.3
2019-05-11T13:25:55.192Z,11.3
2019-05-11T13:26:55.222Z,11.4
2019-05-11T13:27:55.345Z,11.5
2019-05-11T13:28:55.358Z,11.6
2019-05-11T13:29:55.456Z,11.7
2019-05-11T13:30:57.756Z,11.7
2019-05-11T13:31:55.639Z,11.8
2019-05-11T13:32:57.897Z,11.7
2019-05-11T13:33:58.276Z,11.6
2019-05-11T13:34:55.817Z,11.7
2019-05-11T13:35:57.846Z,11.8
2019-05-11T13:36:57.473Z,11.8
2019-05-11T13:37:58.205Z,11.9
2019-05-11T13:38:58.567Z,12.1
2019-05-11T13:39:57.913Z,12.3
2019-05-11T13:40:56.253Z,12.5
2019-05-11T13:41:57.933Z,12.6
2019-05-11T13:42:58.101Z,12.7
2019-05-11T13:43:57.652Z,12.9
2019-05-11T13:44:58.355Z,13
2019-05-11T13:45:58.362Z,13.1
2019-05-11T13:46:58.398Z,13.1
2019-05-11T13:47:59.143Z,13.2
2019-05-11T13:48:57.899Z,13.1
2019-05-11T13:49:58.385Z,13
2019-05-11T13:50:58.183Z,13.2
2019-05-11T13:51:59.177Z,13.5
2019-05-11T13:52:58.340Z,13.7
2019-05-11T13:53:58.404Z,13.9
2019-05-11T13:54:58.432Z,14.1
2019-05-11T13:56:08.230Z,14.2
2019-05-11T13:56:57.721Z,13.8
2019-05-11T13:57:57.815Z,13.4
2019-05-11T13:58:57.893Z,13.2
2019-05-11T13:59:57.925Z,12.8
2019-05-11T14:00:58.452Z,12.6
2019-05-11T14:01:58.208Z,12.4
2019-05-11T14:02:58.420Z,12.3
2019-05-11T14:03:58.456Z,12.3
2019-05-11T14:04:58.430Z,12.2
2019-05-11T14:05:58.366Z,12.1
2019-05-11T14:06:58.536Z,12
2019-05-11T14:07:58.635Z,11.9
2019-05-11T14:08:58.870Z,11.8
2019-05-11T14:09:58.925Z,11.7
2019-05-11T14:10:58.309Z,11.7
2019-05-11T14:11:58.521Z,11.7
2019-05-11T14:12:58.448Z,11.7
2019-05-11T14:13:58.620Z,11.7
2019-05-11T14:14:58.581Z,11.8
2019-05-11T14:15:58.837Z,11.8
2019-05-11T14:16:59.052Z,11.9
2019-05-11T14:18:07.594Z,12
2019-05-11T14:18:58.898Z,12.1
2019-05-11T14:19:58.985Z,12.2
2019-05-11T14:20:59.039Z,12.3
2019-05-11T14:21:59.154Z,12.5
2019-05-11T14:22:59.194Z,12.6
2019-05-11T14:23:59.275Z,12.6
2019-05-11T14:24:59.323Z,12.5
2019-05-11T14:25:59.453Z,12.6
2019-05-11T14:26:59.552Z,12.6
2019-05-11T14:27:59.709Z,12.6
2019-05-11T14:28:59.649Z,12.6
2019-05-11T14:29:59.725Z,12.5
2019-05-11T14:30:59.880Z,12.5
2019-05-11T14:31:59.913Z,12.5
2019-05-11T14:32:59.960Z,12.6
2019-05-11T14:34:00.051Z,12.5
2019-05-11T14:35:00.547Z,12.4
2019-05-11T14:36:00.742Z,12.3
2019-05-11T14:37:00.772Z,12.4
2019-05-11T14:38:00.476Z,12.3
2019-05-11T14:39:00.491Z,12.2
2019-05-11T14:40:00.525Z,12.1
2019-05-11T14:41:00.644Z,12
2019-05-11T14:42:00.716Z,12
2019-05-11T14:43:00.770Z,12
2019-05-11T14:44:00.888Z,12
2019-05-11T14:45:00.945Z,12.1
2019-05-11T14:46:01.025Z,12.3
2019-05-11T14:47:01.183Z,12.3
2019-05-11T14:48:01.222Z,12.3
2019-05-11T14:49:01.299Z,12.2
2019-05-11T14:50:01.361Z,12.2
2019-05-11T14:51:01.465Z,12.3
2019-05-11T14:52:01.571Z,12.3
2019-05-11T14:53:01.600Z,12.3
2019-05-11T14:54:01.650Z,12.4
2019-05-11T14:55:01.704Z,12.4
2019-05-11T14:56:02.144Z,12.5
2019-05-11T14:57:01.888Z,12.7
2019-05-11T14:58:01.937Z,12.9
2019-05-11T14:59:02.008Z,12.8
2019-05-11T15:00:02.072Z,12.7
2019-05-11T15:01:02.120Z,12.7
2019-05-11T15:02:02.253Z,12.7
2019-05-11T15:03:02.239Z,12.7
2019-05-11T15:04:02.343Z,12.7
2019-05-11T15:05:02.387Z,12.8
2019-05-11T15:06:02.477Z,12.8
2019-05-11T15:07:02.587Z,12.6
2019-05-11T15:08:02.646Z,12.6
2019-05-11T15:09:02.697Z,12.7
2019-05-11T15:10:02.792Z,12.7
2019-05-11T15:11:02.845Z,13
2019-05-11T15:12:02.960Z,13.4
2019-05-11T15:13:03.077Z,13.7
2019-05-11T15:14:03.094Z,13.9
2019-05-11T15:15:03.217Z,14.1
2019-05-11T15:16:03.267Z,13.9
2019-05-11T15:17:03.394Z,13.7
2019-05-11T15:18:03.469Z,13.7
2019-05-11T15:19:09.802Z,13.4
2019-05-11T15:20:03.620Z,13.4
2019-05-11T15:21:03.728Z,13.3
2019-05-11T15:22:03.813Z,13.3
2019-05-11T15:23:03.823Z,13.3
2019-05-11T15:24:03.914Z,13.5
2019-05-11T15:25:04.060Z,13.6
2019-05-11T15:26:06.689Z,13.5
2019-05-11T15:27:04.239Z,13.5
2019-05-11T15:28:04.258Z,13.4
2019-05-11T15:29:04.337Z,13.5
2019-05-11T15:30:04.536Z,13.6
2019-05-11T15:31:04.560Z,13.5
2019-05-11T15:32:04.597Z,13.5
2019-05-11T15:33:04.714Z,13.5
2019-05-11T15:34:04.776Z,13.6
2019-05-11T15:35:04.856Z,13.6
2019-05-11T15:36:04.906Z,13.6
2019-05-11T15:37:05.095Z,13.5
2019-05-11T15:38:05.057Z,13.8
2019-05-11T15:39:07.153Z,13.8
2019-05-11T15:40:05.180Z,13.8
2019-05-11T15:41:05.235Z,13.7
2019-05-11T15:42:09.740Z,13.7
2019-05-11T15:43:05.401Z,13.8
2019-05-11T15:44:05.531Z,13.8
2019-05-11T15:45:07.854Z,13.7
2019-05-11T15:46:05.710Z,13.5
2019-05-11T15:47:07.702Z,13.7
2019-05-11T15:48:07.676Z,13.8
2019-05-11T15:49:05.874Z,14
2019-05-11T15:50:08.129Z,13.9
2019-05-11T15:51:07.978Z,29.6
2019-05-11T15:52:08.023Z,13.5
2019-05-11T15:53:08.484Z,13.6
2019-05-11T15:54:08.189Z,13.7
2019-05-11T15:55:08.004Z,29.4
2019-05-11T15:56:08.491Z,13.4
2019-05-11T15:57:08.340Z,13.2
2019-05-11T15:58:06.586Z,13
2019-05-11T15:59:08.550Z,13.1
2019-05-11T16:00:08.800Z,13.1
2019-05-11T16:01:07.859Z,12.9
2019-05-11T16:02:08.504Z,12.8
2019-05-11T16:03:08.099Z,12.7
2019-05-11T16:04:09.065Z,12.7
2019-05-11T16:05:08.524Z,12.5
2019-05-11T16:06:07.755Z,12.5
2019-05-11T16:07:08.143Z,12.4
2019-05-11T16:08:08.243Z,12.3
2019-05-11T16:09:08.142Z,12.3
2019-05-11T16:10:08.004Z,12.3
2019-05-11T16:11:08.255Z,12.2
2019-05-11T16:12:07.423Z,12.1
2019-05-11T16:14:08.474Z,12.1
2019-05-11T16:15:08.674Z,12.3
2019-05-11T16:16:07.684Z,12.4
2019-05-11T16:17:08.703Z,12.5
2019-05-11T16:18:08.287Z,12.6
2019-05-11T16:19:13.792Z,12.6
2019-05-11T16:20:08.669Z,12.6
2019-05-11T16:21:08.179Z,12.5
2019-05-11T16:23:08.240Z,12.5
2019-05-11T16:24:08.379Z,12.4
2019-05-11T16:25:08.691Z,12.3
2019-05-11T16:26:08.634Z,12.3
2019-05-11T16:29:11.373Z,12.1
2019-05-11T16:30:08.837Z,12
2019-05-11T16:31:09.291Z,12
2019-05-11T16:32:08.990Z,12.1
2019-05-11T16:33:09.161Z,12.1
2019-05-11T16:34:09.189Z,12.1
2019-05-11T16:35:09.341Z,12.3
2019-05-11T16:36:09.391Z,12.3
2019-05-11T16:37:10.125Z,12.4
2019-05-11T16:38:10.687Z,12.5
2019-05-11T16:40:09.861Z,12.5
2019-05-11T16:41:09.957Z,12.4